sensor_id;sensor_type;location;lat;lon;timestamp;P1;durP1;ratioP1;P2;durP2;ratioP2
58214;SDS011;44011;52.218;1.480;2022-11-30T00:00:38;20.27;;;10.30;;
58214;SDS011;44011;52.218;1.480;2022-11-30T00:04:02;21.80;;;10.23;;
58214;SDS011;44011;52.218;1.480;2022-11-30T00:07:27;17.55;;;9.43;;
58214;SDS011;44011;52.218;1.480;2022-11-30T00:10:53;16.73;;;9.95;;
58214;SDS011;44011;52.218;1.480;2022-11-30T00:14:17;25.05;;;10.02;;
58214;SDS011;44011;52.218;1.480;2022-11-30T00:17:42;14.07;;;8.82;;
58214;SDS011;44011;52.218;1.480;2022-11-30T00:21:06;18.38;;;8.95;;
58214;SDS011;44011;52.218;1.480;2022-11-30T00:24:30;20.17;;;10.38;;
58214;SDS011;44011;52.218;1.480;2022-11-30T00:27:54;19.88;;;9.77;;
58214;SDS011;44011;52.218;1.480;2022-11-30T00:31:19;18.40;;;9.30;;
58214;SDS011;44011;52.218;1.480;2022-11-30T00:34:48;19.77;;;10.20;;
58214;SDS011;44011;52.218;1.480;2022-11-30T00:38:27;20.92;;;9.45;;
58214;SDS011;44011;52.218;1.480;2022-11-30T00:41:51;24.27;;;11.05;;
58214;SDS011;44011;52.218;1.480;2022-11-30T00:45:15;23.65;;;10.10;;
58214;SDS011;44011;52.218;1.480;2022-11-30T00:48:39;22.65;;;9.85;;
58214;SDS011;44011;52.218;1.480;2022-11-30T00:52:03;21.40;;;10.13;;
58214;SDS011;44011;52.218;1.480;2022-11-30T00:55:27;25.13;;;11.48;;
58214;SDS011;44011;52.218;1.480;2022-11-30T00:58:51;28.58;;;12.10;;
58214;SDS011;44011;52.218;1.480;2022-11-30T01:02:15;24.92;;;10.90;;
58214;SDS011;44011;52.218;1.480;2022-11-30T01:05:40;28.13;;;12.35;;
58214;SDS011;44011;52.218;1.480;2022-11-30T01:09:04;30.92;;;13.13;;
58214;SDS011;44011;52.218;1.480;2022-11-30T01:12:28;28.05;;;13.73;;
58214;SDS011;44011;52.218;1.480;2022-11-30T01:15:52;25.30;;;14.05;;
58214;SDS011;44011;52.218;1.480;2022-11-30T01:19:16;33.78;;;13.68;;
58214;SDS011;44011;52.218;1.480;2022-11-30T01:22:40;28.33;;;13.10;;
58214;SDS011;44011;52.218;1.480;2022-11-30T01:26:04;32.78;;;13.52;;
58214;SDS011;44011;52.218;1.480;2022-11-30T01:29:28;32.28;;;14.52;;
58214;SDS011;44011;52.218;1.480;2022-11-30T01:32:52;30.10;;;14.88;;
58214;SDS011;44011;52.218;1.480;2022-11-30T01:36:21;23.95;;;13.13;;
58214;SDS011;44011;52.218;1.480;2022-11-30T01:39:45;24.85;;;12.63;;
58214;SDS011;44011;52.218;1.480;2022-11-30T01:43:15;22.30;;;11.38;;
58214;SDS011;44011;52.218;1.480;2022-11-30T01:46:45;30.88;;;13.90;;
58214;SDS011;44011;52.218;1.480;2022-11-30T01:50:18;33.25;;;13.18;;
58214;SDS011;44011;52.218;1.480;2022-11-30T01:53:44;27.60;;;12.50;;
58214;SDS011;44011;52.218;1.480;2022-11-30T01:57:29;32.53;;;13.52;;
58214;SDS011;44011;52.218;1.480;2022-11-30T02:04:19;26.98;;;12.60;;
58214;SDS011;44011;52.218;1.480;2022-11-30T02:07:44;35.10;;;12.77;;
58214;SDS011;44011;52.218;1.480;2022-11-30T02:11:10;34.28;;;12.93;;
58214;SDS011;44011;52.218;1.480;2022-11-30T02:18:10;21.48;;;10.82;;
58214;SDS011;44011;52.218;1.480;2022-11-30T02:21:58;23.55;;;11.35;;
58214;SDS011;44011;52.218;1.480;2022-11-30T02:29:42;27.10;;;11.10;;
58214;SDS011;44011;52.218;1.480;2022-11-30T02:36:34;23.98;;;10.45;;
58214;SDS011;44011;52.218;1.480;2022-11-30T02:39:59;26.33;;;11.60;;
58214;SDS011;44011;52.218;1.480;2022-11-30T02:43:23;23.95;;;11.55;;
58214;SDS011;44011;52.218;1.480;2022-11-30T02:46:52;21.52;;;11.50;;
58214;SDS011;44011;52.218;1.480;2022-11-30T02:50:27;27.05;;;12.02;;
58214;SDS011;44011;52.218;1.480;2022-11-30T02:53:53;27.02;;;11.82;;
58214;SDS011;44011;52.218;1.480;2022-11-30T02:57:18;34.38;;;11.93;;
58214;SDS011;44011;52.218;1.480;2022-11-30T03:00:42;30.48;;;11.82;;
58214;SDS011;44011;52.218;1.480;2022-11-30T03:04:06;24.42;;;12.43;;
58214;SDS011;44011;52.218;1.480;2022-11-30T03:07:31;28.15;;;12.82;;
58214;SDS011;44011;52.218;1.480;2022-11-30T03:10:55;31.73;;;12.75;;
58214;SDS011;44011;52.218;1.480;2022-11-30T03:14:19;28.35;;;12.75;;
58214;SDS011;44011;52.218;1.480;2022-11-30T03:17:43;26.10;;;12.48;;
58214;SDS011;44011;52.218;1.480;2022-11-30T03:21:07;25.95;;;11.23;;
58214;SDS011;44011;52.218;1.480;2022-11-30T03:24:32;25.15;;;12.43;;
58214;SDS011;44011;52.218;1.480;2022-11-30T03:27:56;30.02;;;12.50;;
58214;SDS011;44011;52.218;1.480;2022-11-30T03:31:20;27.80;;;12.70;;
58214;SDS011;44011;52.218;1.480;2022-11-30T03:34:44;30.02;;;12.90;;
58214;SDS011;44011;52.218;1.480;2022-11-30T03:38:08;33.45;;;13.70;;
58214;SDS011;44011;52.218;1.480;2022-11-30T03:41:33;31.58;;;13.50;;
58214;SDS011;44011;52.218;1.480;2022-11-30T03:44:57;33.20;;;12.25;;
58214;SDS011;44011;52.218;1.480;2022-11-30T03:48:21;34.25;;;12.95;;
58214;SDS011;44011;52.218;1.480;2022-11-30T03:51:45;30.58;;;13.05;;
58214;SDS011;44011;52.218;1.480;2022-11-30T03:55:09;23.23;;;11.65;;
58214;SDS011;44011;52.218;1.480;2022-11-30T03:58:34;27.45;;;12.77;;
58214;SDS011;44011;52.218;1.480;2022-11-30T04:01:58;34.85;;;13.48;;
58214;SDS011;44011;52.218;1.480;2022-11-30T04:05:22;29.88;;;12.80;;
58214;SDS011;44011;52.218;1.480;2022-11-30T04:08:46;34.25;;;13.07;;
58214;SDS011;44011;52.218;1.480;2022-11-30T04:12:11;29.95;;;13.07;;
58214;SDS011;44011;52.218;1.480;2022-11-30T04:15:35;29.27;;;13.15;;
58214;SDS011;44011;52.218;1.480;2022-11-30T04:18:59;29.55;;;12.30;;
58214;SDS011;44011;52.218;1.480;2022-11-30T04:22:23;33.47;;;13.40;;
58214;SDS011;44011;52.218;1.480;2022-11-30T04:25:48;35.75;;;14.27;;
58214;SDS011;44011;52.218;1.480;2022-11-30T04:29:12;30.10;;;12.57;;
58214;SDS011;44011;52.218;1.480;2022-11-30T04:32:36;40.20;;;14.85;;
58214;SDS011;44011;52.218;1.480;2022-11-30T04:36:01;31.05;;;13.45;;
58214;SDS011;44011;52.218;1.480;2022-11-30T04:39:26;31.70;;;13.55;;
58214;SDS011;44011;52.218;1.480;2022-11-30T04:42:50;44.20;;;15.40;;
58214;SDS011;44011;52.218;1.480;2022-11-30T04:46:14;35.65;;;14.02;;
58214;SDS011;44011;52.218;1.480;2022-11-30T04:49:38;38.83;;;14.25;;
58214;SDS011;44011;52.218;1.480;2022-11-30T04:53:03;30.05;;;13.57;;
58214;SDS011;44011;52.218;1.480;2022-11-30T04:56:27;31.73;;;14.43;;
58214;SDS011;44011;52.218;1.480;2022-11-30T04:59:51;30.25;;;14.48;;
58214;SDS011;44011;52.218;1.480;2022-11-30T05:03:17;38.90;;;15.10;;
58214;SDS011;44011;52.218;1.480;2022-11-30T05:06:41;33.03;;;13.60;;
58214;SDS011;44011;52.218;1.480;2022-11-30T05:10:06;33.88;;;13.45;;
58214;SDS011;44011;52.218;1.480;2022-11-30T05:13:30;28.67;;;11.95;;
58214;SDS011;44011;52.218;1.480;2022-11-30T05:16:54;34.65;;;13.82;;
58214;SDS011;44011;52.218;1.480;2022-11-30T05:20:21;30.35;;;12.70;;
58214;SDS011;44011;52.218;1.480;2022-11-30T05:23:46;34.65;;;14.10;;
58214;SDS011;44011;52.218;1.480;2022-11-30T05:27:10;31.48;;;13.00;;
58214;SDS011;44011;52.218;1.480;2022-11-30T05:30:34;27.38;;;13.23;;
58214;SDS011;44011;52.218;1.480;2022-11-30T05:33:58;36.65;;;12.85;;
58214;SDS011;44011;52.218;1.480;2022-11-30T05:37:22;32.72;;;13.43;;
58214;SDS011;44011;52.218;1.480;2022-11-30T05:40:46;27.88;;;12.40;;
58214;SDS011;44011;52.218;1.480;2022-11-30T05:44:10;34.28;;;13.43;;
58214;SDS011;44011;52.218;1.480;2022-11-30T05:47:34;29.15;;;13.15;;
58214;SDS011;44011;52.218;1.480;2022-11-30T05:51:12;29.85;;;12.65;;
58214;SDS011;44011;52.218;1.480;2022-11-30T05:54:37;27.75;;;11.95;;
58214;SDS011;44011;52.218;1.480;2022-11-30T05:58:00;35.92;;;13.60;;
58214;SDS011;44011;52.218;1.480;2022-11-30T06:01:26;33.38;;;13.05;;
58214;SDS011;44011;52.218;1.480;2022-11-30T06:04:50;25.27;;;11.32;;
58214;SDS011;44011;52.218;1.480;2022-11-30T06:08:15;26.55;;;13.30;;
58214;SDS011;44011;52.218;1.480;2022-11-30T06:11:39;25.00;;;11.13;;
58214;SDS011;44011;52.218;1.480;2022-11-30T06:15:03;31.95;;;14.10;;
58214;SDS011;44011;52.218;1.480;2022-11-30T06:18:28;27.40;;;12.07;;
58214;SDS011;44011;52.218;1.480;2022-11-30T06:21:52;29.02;;;13.57;;
58214;SDS011;44011;52.218;1.480;2022-11-30T06:25:16;31.05;;;13.35;;
58214;SDS011;44011;52.218;1.480;2022-11-30T06:28:40;32.97;;;11.48;;
58214;SDS011;44011;52.218;1.480;2022-11-30T06:32:07;26.98;;;11.77;;
58214;SDS011;44011;52.218;1.480;2022-11-30T06:35:31;32.00;;;12.52;;
58214;SDS011;44011;52.218;1.480;2022-11-30T06:38:56;28.42;;;11.57;;
58214;SDS011;44011;52.218;1.480;2022-11-30T06:42:20;23.48;;;10.60;;
58214;SDS011;44011;52.218;1.480;2022-11-30T06:45:44;23.15;;;9.77;;
58214;SDS011;44011;52.218;1.480;2022-11-30T06:49:09;29.48;;;11.90;;
58214;SDS011;44011;52.218;1.480;2022-11-30T06:52:38;25.27;;;11.63;;
58214;SDS011;44011;52.218;1.480;2022-11-30T06:56:02;28.05;;;12.15;;
58214;SDS011;44011;52.218;1.480;2022-11-30T06:59:26;25.55;;;11.70;;
58214;SDS011;44011;52.218;1.480;2022-11-30T07:02:50;20.27;;;11.40;;
58214;SDS011;44011;52.218;1.480;2022-11-30T07:06:14;23.02;;;12.27;;
58214;SDS011;44011;52.218;1.480;2022-11-30T07:09:38;21.70;;;11.18;;
58214;SDS011;44011;52.218;1.480;2022-11-30T07:13:03;25.05;;;12.07;;
58214;SDS011;44011;52.218;1.480;2022-11-30T07:16:27;22.40;;;10.68;;
58214;SDS011;44011;52.218;1.480;2022-11-30T07:19:51;19.15;;;11.45;;
58214;SDS011;44011;52.218;1.480;2022-11-30T07:23:15;29.92;;;11.30;;
58214;SDS011;44011;52.218;1.480;2022-11-30T07:26:58;20.98;;;10.65;;
58214;SDS011;44011;52.218;1.480;2022-11-30T07:30:22;23.95;;;11.52;;
58214;SDS011;44011;52.218;1.480;2022-11-30T07:33:48;26.15;;;12.10;;
58214;SDS011;44011;52.218;1.480;2022-11-30T07:37:12;25.65;;;12.13;;
58214;SDS011;44011;52.218;1.480;2022-11-30T07:40:36;23.20;;;10.88;;
58214;SDS011;44011;52.218;1.480;2022-11-30T07:44:02;25.98;;;11.23;;
58214;SDS011;44011;52.218;1.480;2022-11-30T07:47:26;27.45;;;12.73;;
58214;SDS011;44011;52.218;1.480;2022-11-30T07:50:50;27.83;;;11.10;;
58214;SDS011;44011;52.218;1.480;2022-11-30T07:54:14;24.08;;;11.95;;
58214;SDS011;44011;52.218;1.480;2022-11-30T07:57:38;22.40;;;11.25;;
58214;SDS011;44011;52.218;1.480;2022-11-30T08:01:16;22.88;;;11.45;;
58214;SDS011;44011;52.218;1.480;2022-11-30T08:03:42;21.48;;;11.32;;
58214;SDS011;44011;52.218;1.480;2022-11-30T08:06:08;24.02;;;11.23;;
58214;SDS011;44011;52.218;1.480;2022-11-30T08:08:35;20.65;;;11.77;;
58214;SDS011;44011;52.218;1.480;2022-11-30T08:11:01;20.33;;;10.73;;
58214;SDS011;44011;52.218;1.480;2022-11-30T08:13:27;19.88;;;11.35;;
58214;SDS011;44011;52.218;1.480;2022-11-30T08:15:52;27.60;;;11.52;;
58214;SDS011;44011;52.218;1.480;2022-11-30T08:18:18;19.77;;;10.48;;
58214;SDS011;44011;52.218;1.480;2022-11-30T08:20:43;23.70;;;12.00;;
58214;SDS011;44011;52.218;1.480;2022-11-30T08:23:10;28.15;;;11.63;;
58214;SDS011;44011;52.218;1.480;2022-11-30T08:25:35;21.60;;;10.73;;
58214;SDS011;44011;52.218;1.480;2022-11-30T08:28:00;22.08;;;11.18;;
58214;SDS011;44011;52.218;1.480;2022-11-30T08:30:26;23.63;;;11.50;;
58214;SDS011;44011;52.218;1.480;2022-11-30T08:32:51;18.17;;;9.63;;
58214;SDS011;44011;52.218;1.480;2022-11-30T08:35:17;25.98;;;10.98;;
58214;SDS011;44011;52.218;1.480;2022-11-30T08:37:42;18.58;;;9.77;;
58214;SDS011;44011;52.218;1.480;2022-11-30T08:40:08;23.10;;;11.00;;
58214;SDS011;44011;52.218;1.480;2022-11-30T08:42:33;18.70;;;9.45;;
58214;SDS011;44011;52.218;1.480;2022-11-30T08:44:58;31.65;;;11.73;;
58214;SDS011;44011;52.218;1.480;2022-11-30T08:47:24;22.25;;;10.80;;
58214;SDS011;44011;52.218;1.480;2022-11-30T08:49:49;21.10;;;10.90;;
58214;SDS011;44011;52.218;1.480;2022-11-30T08:52:14;20.65;;;10.57;;
58214;SDS011;44011;52.218;1.480;2022-11-30T08:54:40;22.67;;;11.35;;
58214;SDS011;44011;52.218;1.480;2022-11-30T08:57:06;17.77;;;10.40;;
58214;SDS011;44011;52.218;1.480;2022-11-30T08:59:31;22.80;;;11.43;;
58214;SDS011;44011;52.218;1.480;2022-11-30T09:01:57;20.27;;;10.88;;
58214;SDS011;44011;52.218;1.480;2022-11-30T09:04:22;21.17;;;10.77;;
58214;SDS011;44011;52.218;1.480;2022-11-30T09:06:48;20.73;;;9.88;;
58214;SDS011;44011;52.218;1.480;2022-11-30T09:09:13;20.27;;;10.57;;
58214;SDS011;44011;52.218;1.480;2022-11-30T09:11:38;20.98;;;9.80;;
58214;SDS011;44011;52.218;1.480;2022-11-30T09:14:04;26.35;;;11.65;;
58214;SDS011;44011;52.218;1.480;2022-11-30T09:16:29;23.45;;;10.43;;
58214;SDS011;44011;52.218;1.480;2022-11-30T09:18:55;20.05;;;10.38;;
58214;SDS011;44011;52.218;1.480;2022-11-30T09:21:22;21.33;;;11.30;;
58214;SDS011;44011;52.218;1.480;2022-11-30T09:23:47;22.02;;;10.57;;
58214;SDS011;44011;52.218;1.480;2022-11-30T09:26:15;25.92;;;11.63;;
58214;SDS011;44011;52.218;1.480;2022-11-30T09:28:42;24.42;;;10.73;;
58214;SDS011;44011;52.218;1.480;2022-11-30T09:31:11;24.20;;;11.65;;
58214;SDS011;44011;52.218;1.480;2022-11-30T09:33:37;22.70;;;10.65;;
58214;SDS011;44011;52.218;1.480;2022-11-30T09:36:03;21.77;;;11.45;;
58214;SDS011;44011;52.218;1.480;2022-11-30T09:38:29;23.05;;;11.15;;
58214;SDS011;44011;52.218;1.480;2022-11-30T09:40:58;21.73;;;11.35;;
58214;SDS011;44011;52.218;1.480;2022-11-30T09:43:45;25.05;;;11.07;;
58214;SDS011;44011;52.218;1.480;2022-11-30T09:46:15;19.17;;;10.40;;
58214;SDS011;44011;52.218;1.480;2022-11-30T09:51:41;23.48;;;12.02;;
58214;SDS011;44011;52.218;1.480;2022-11-30T09:54:11;21.15;;;10.68;;
58214;SDS011;44011;52.218;1.480;2022-11-30T09:56:38;20.92;;;10.95;;
58214;SDS011;44011;52.218;1.480;2022-11-30T09:59:16;24.05;;;11.98;;
58214;SDS011;44011;52.218;1.480;2022-11-30T10:01:43;22.38;;;10.73;;
58214;SDS011;44011;52.218;1.480;2022-11-30T10:04:19;24.38;;;11.70;;
58214;SDS011;44011;52.218;1.480;2022-11-30T10:09:32;22.02;;;10.57;;
58214;SDS011;44011;52.218;1.480;2022-11-30T10:12:10;26.50;;;10.63;;
58214;SDS011;44011;52.218;1.480;2022-11-30T10:19:50;20.63;;;11.10;;
58214;SDS011;44011;52.218;1.480;2022-11-30T10:27:13;19.67;;;11.05;;
58214;SDS011;44011;52.218;1.480;2022-11-30T10:29:41;22.75;;;10.80;;
58214;SDS011;44011;52.218;1.480;2022-11-30T10:32:20;24.77;;;11.02;;
58214;SDS011;44011;52.218;1.480;2022-11-30T10:34:47;24.55;;;10.73;;
58214;SDS011;44011;52.218;1.480;2022-11-30T10:37:32;22.13;;;10.60;;
58214;SDS011;44011;52.218;1.480;2022-11-30T10:40:00;23.23;;;10.25;;
58214;SDS011;44011;52.218;1.480;2022-11-30T10:44:59;20.90;;;10.75;;
58214;SDS011;44011;52.218;1.480;2022-11-30T10:47:25;24.13;;;11.88;;
58214;SDS011;44011;52.218;1.480;2022-11-30T10:49:52;27.95;;;12.25;;
58214;SDS011;44011;52.218;1.480;2022-11-30T10:52:22;18.80;;;9.43;;
58214;SDS011;44011;52.218;1.480;2022-11-30T10:54:49;23.25;;;10.68;;
58214;SDS011;44011;52.218;1.480;2022-11-30T10:57:15;25.02;;;12.10;;
58214;SDS011;44011;52.218;1.480;2022-11-30T11:02:50;30.63;;;10.93;;
58214;SDS011;44011;52.218;1.480;2022-11-30T11:05:05;21.95;;;11.15;;
58214;SDS011;44011;52.218;1.480;2022-11-30T11:07:31;25.42;;;12.10;;
58214;SDS011;44011;52.218;1.480;2022-11-30T11:09:57;20.83;;;9.95;;
58214;SDS011;44011;52.218;1.480;2022-11-30T11:12:27;21.17;;;10.77;;
58214;SDS011;44011;52.218;1.480;2022-11-30T11:17:32;19.67;;;9.68;;
58214;SDS011;44011;52.218;1.480;2022-11-30T11:19:58;23.80;;;11.07;;
58214;SDS011;44011;52.218;1.480;2022-11-30T11:22:24;26.38;;;10.38;;
58214;SDS011;44011;52.218;1.480;2022-11-30T11:24:52;22.70;;;11.05;;
58214;SDS011;44011;52.218;1.480;2022-11-30T11:27:28;20.50;;;10.55;;
58214;SDS011;44011;52.218;1.480;2022-11-30T11:32:22;20.77;;;11.05;;
58214;SDS011;44011;52.218;1.480;2022-11-30T11:34:51;20.25;;;9.90;;
58214;SDS011;44011;52.218;1.480;2022-11-30T11:39:55;24.35;;;10.20;;
58214;SDS011;44011;52.218;1.480;2022-11-30T11:42:21;22.05;;;10.10;;
58214;SDS011;44011;52.218;1.480;2022-11-30T11:44:54;20.88;;;9.90;;
58214;SDS011;44011;52.218;1.480;2022-11-30T11:47:37;19.83;;;9.25;;
58214;SDS011;44011;52.218;1.480;2022-11-30T11:52:34;24.55;;;11.93;;
58214;SDS011;44011;52.218;1.480;2022-11-30T11:55:12;23.13;;;10.10;;
58214;SDS011;44011;52.218;1.480;2022-11-30T11:57:41;24.90;;;11.27;;
58214;SDS011;44011;52.218;1.480;2022-11-30T12:00:14;26.50;;;10.40;;
58214;SDS011;44011;52.218;1.480;2022-11-30T12:10:02;22.77;;;11.35;;
58214;SDS011;44011;52.218;1.480;2022-11-30T12:12:28;20.63;;;10.35;;
58214;SDS011;44011;52.218;1.480;2022-11-30T12:14:54;22.95;;;10.18;;
58214;SDS011;44011;52.218;1.480;2022-11-30T12:25:34;20.42;;;8.95;;
58214;SDS011;44011;52.218;1.480;2022-11-30T12:33:04;19.65;;;9.95;;
58214;SDS011;44011;52.218;1.480;2022-11-30T12:43:42;17.92;;;8.65;;
58214;SDS011;44011;52.218;1.480;2022-11-30T12:46:22;17.52;;;8.25;;
58214;SDS011;44011;52.218;1.480;2022-11-30T12:51:19;17.45;;;8.27;;
58214;SDS011;44011;52.218;1.480;2022-11-30T12:54:02;17.55;;;7.35;;
58214;SDS011;44011;52.218;1.480;2022-11-30T13:03:48;18.98;;;7.38;;
58214;SDS011;44011;52.218;1.480;2022-11-30T13:08:47;9.40;;;5.28;;
58214;SDS011;44011;52.218;1.480;2022-11-30T13:11:17;12.05;;;6.07;;
58214;SDS011;44011;52.218;1.480;2022-11-30T13:13:46;15.27;;;7.95;;
58214;SDS011;44011;52.218;1.480;2022-11-30T13:16:13;13.35;;;5.80;;
58214;SDS011;44011;52.218;1.480;2022-11-30T13:18:39;12.75;;;6.60;;
58214;SDS011;44011;52.218;1.480;2022-11-30T13:21:08;14.57;;;6.10;;
58214;SDS011;44011;52.218;1.480;2022-11-30T13:23:40;14.27;;;6.18;;
58214;SDS011;44011;52.218;1.480;2022-11-30T13:31:28;13.13;;;6.03;;
58214;SDS011;44011;52.218;1.480;2022-11-30T13:33:58;10.57;;;5.65;;
58214;SDS011;44011;52.218;1.480;2022-11-30T13:36:36;8.73;;;5.30;;
58214;SDS011;44011;52.218;1.480;2022-11-30T13:41:37;12.65;;;5.70;;
58214;SDS011;44011;52.218;1.480;2022-11-30T13:44:03;14.60;;;5.68;;
58214;SDS011;44011;52.218;1.480;2022-11-30T13:46:29;8.80;;;5.10;;
58214;SDS011;44011;52.218;1.480;2022-11-30T13:49:09;9.02;;;4.65;;
58214;SDS011;44011;52.218;1.480;2022-11-30T13:51:36;15.00;;;4.57;;
58214;SDS011;44011;52.218;1.480;2022-11-30T13:56:46;10.88;;;5.50;;
58214;SDS011;44011;52.218;1.480;2022-11-30T14:01:51;10.35;;;4.60;;
58214;SDS011;44011;52.218;1.480;2022-11-30T14:06:45;8.70;;;4.63;;
58214;SDS011;44011;52.218;1.480;2022-11-30T14:11:41;7.05;;;3.78;;
58214;SDS011;44011;52.218;1.480;2022-11-30T14:16:50;7.57;;;3.70;;
58214;SDS011;44011;52.218;1.480;2022-11-30T14:19:16;9.25;;;4.35;;
58214;SDS011;44011;52.218;1.480;2022-11-30T14:21:42;10.00;;;4.80;;
58214;SDS011;44011;52.218;1.480;2022-11-30T14:24:18;9.88;;;5.18;;
58214;SDS011;44011;52.218;1.480;2022-11-30T14:26:45;10.80;;;3.90;;
58214;SDS011;44011;52.218;1.480;2022-11-30T14:29:18;7.38;;;3.58;;
58214;SDS011;44011;52.218;1.480;2022-11-30T14:34:28;8.10;;;3.97;;
58214;SDS011;44011;52.218;1.480;2022-11-30T14:36:58;5.85;;;3.63;;
58214;SDS011;44011;52.218;1.480;2022-11-30T14:39:32;10.30;;;3.83;;
58214;SDS011;44011;52.218;1.480;2022-11-30T14:41:58;7.47;;;4.13;;
58214;SDS011;44011;52.218;1.480;2022-11-30T14:44:23;7.90;;;4.65;;
58214;SDS011;44011;52.218;1.480;2022-11-30T14:46:49;9.15;;;4.35;;
58214;SDS011;44011;52.218;1.480;2022-11-30T14:49:15;11.45;;;5.03;;
58214;SDS011;44011;52.218;1.480;2022-11-30T14:51:45;6.90;;;3.83;;
58214;SDS011;44011;52.218;1.480;2022-11-30T14:56:49;10.38;;;4.43;;
58214;SDS011;44011;52.218;1.480;2022-11-30T15:01:57;6.53;;;3.83;;
58214;SDS011;44011;52.218;1.480;2022-11-30T15:04:23;6.70;;;3.50;;
58214;SDS011;44011;52.218;1.480;2022-11-30T15:06:51;4.85;;;2.92;;
58214;SDS011;44011;52.218;1.480;2022-11-30T15:09:18;10.00;;;3.20;;
58214;SDS011;44011;52.218;1.480;2022-11-30T15:11:44;4.78;;;2.78;;
58214;SDS011;44011;52.218;1.480;2022-11-30T15:14:10;5.60;;;3.00;;
58214;SDS011;44011;52.218;1.480;2022-11-30T15:16:36;5.03;;;3.03;;
58214;SDS011;44011;52.218;1.480;2022-11-30T15:19:15;6.80;;;2.55;;
58214;SDS011;44011;52.218;1.480;2022-11-30T15:21:43;5.82;;;2.70;;
58214;SDS011;44011;52.218;1.480;2022-11-30T15:24:09;4.45;;;2.33;;
58214;SDS011;44011;52.218;1.480;2022-11-30T15:29:06;7.32;;;2.70;;
58214;SDS011;44011;52.218;1.480;2022-11-30T15:31:34;3.78;;;2.25;;
58214;SDS011;44011;52.218;1.480;2022-11-30T15:34:01;3.60;;;1.88;;
58214;SDS011;44011;52.218;1.480;2022-11-30T15:36:36;7.05;;;2.88;;
58214;SDS011;44011;52.218;1.480;2022-11-30T15:39:04;5.68;;;2.03;;
58214;SDS011;44011;52.218;1.480;2022-11-30T15:41:30;5.05;;;2.90;;
58214;SDS011;44011;52.218;1.480;2022-11-30T15:43:56;3.90;;;2.17;;
58214;SDS011;44011;52.218;1.480;2022-11-30T15:46:52;5.13;;;2.88;;
58214;SDS011;44011;52.218;1.480;2022-11-30T15:51:38;4.13;;;2.25;;
58214;SDS011;44011;52.218;1.480;2022-11-30T15:54:04;4.82;;;2.20;;
58214;SDS011;44011;52.218;1.480;2022-11-30T15:56:29;3.88;;;2.92;;
58214;SDS011;44011;52.218;1.480;2022-11-30T15:59:00;8.90;;;2.60;;
58214;SDS011;44011;52.218;1.480;2022-11-30T16:01:26;3.88;;;2.53;;
58214;SDS011;44011;52.218;1.480;2022-11-30T16:08:51;5.90;;;2.20;;
58214;SDS011;44011;52.218;1.480;2022-11-30T16:11:17;3.90;;;2.55;;
58214;SDS011;44011;52.218;1.480;2022-11-30T16:13:43;5.78;;;3.25;;
58214;SDS011;44011;52.218;1.480;2022-11-30T16:16:19;5.53;;;2.70;;
58214;SDS011;44011;52.218;1.480;2022-11-30T16:18:46;5.10;;;2.38;;
58214;SDS011;44011;52.218;1.480;2022-11-30T16:21:12;3.67;;;2.47;;
58214;SDS011;44011;52.218;1.480;2022-11-30T16:23:40;4.90;;;2.40;;
58214;SDS011;44011;52.218;1.480;2022-11-30T16:26:08;4.63;;;2.70;;
58214;SDS011;44011;52.218;1.480;2022-11-30T16:28:34;4.57;;;2.30;;
58214;SDS011;44011;52.218;1.480;2022-11-30T16:30:59;4.75;;;2.35;;
58214;SDS011;44011;52.218;1.480;2022-11-30T16:33:25;5.45;;;2.72;;
58214;SDS011;44011;52.218;1.480;2022-11-30T16:38:16;5.40;;;2.92;;
58214;SDS011;44011;52.218;1.480;2022-11-30T16:40:42;6.93;;;3.63;;
58214;SDS011;44011;52.218;1.480;2022-11-30T16:43:09;5.25;;;3.25;;
58214;SDS011;44011;52.218;1.480;2022-11-30T16:45:35;4.97;;;2.83;;
58214;SDS011;44011;52.218;1.480;2022-11-30T16:48:01;3.33;;;2.65;;
58214;SDS011;44011;52.218;1.480;2022-11-30T16:50:26;6.30;;;3.42;;
58214;SDS011;44011;52.218;1.480;2022-11-30T16:52:52;5.65;;;3.25;;
58214;SDS011;44011;52.218;1.480;2022-11-30T16:55:18;7.07;;;3.20;;
58214;SDS011;44011;52.218;1.480;2022-11-30T16:57:44;6.07;;;3.20;;
58214;SDS011;44011;52.218;1.480;2022-11-30T17:00:10;8.75;;;3.15;;
58214;SDS011;44011;52.218;1.480;2022-11-30T17:02:36;5.20;;;3.10;;
58214;SDS011;44011;52.218;1.480;2022-11-30T17:05:03;11.00;;;3.22;;
58214;SDS011;44011;52.218;1.480;2022-11-30T17:07:29;5.22;;;3.35;;
58214;SDS011;44011;52.218;1.480;2022-11-30T17:09:54;4.93;;;3.13;;
58214;SDS011;44011;52.218;1.480;2022-11-30T17:12:19;5.40;;;3.55;;
58214;SDS011;44011;52.218;1.480;2022-11-30T17:14:45;7.15;;;3.95;;
58214;SDS011;44011;52.218;1.480;2022-11-30T17:17:10;7.28;;;3.88;;
58214;SDS011;44011;52.218;1.480;2022-11-30T17:19:36;6.53;;;4.18;;
58214;SDS011;44011;52.218;1.480;2022-11-30T17:22:02;5.85;;;3.75;;
58214;SDS011;44011;52.218;1.480;2022-11-30T17:24:28;5.90;;;3.63;;
58214;SDS011;44011;52.218;1.480;2022-11-30T17:26:53;6.07;;;3.20;;
58214;SDS011;44011;52.218;1.480;2022-11-30T17:29:18;6.40;;;3.35;;
58214;SDS011;44011;52.218;1.480;2022-11-30T17:31:44;7.88;;;3.70;;
58214;SDS011;44011;52.218;1.480;2022-11-30T17:34:09;7.82;;;4.43;;
58214;SDS011;44011;52.218;1.480;2022-11-30T17:36:35;11.05;;;5.07;;
58214;SDS011;44011;52.218;1.480;2022-11-30T17:39:06;9.40;;;5.07;;
58214;SDS011;44011;52.218;1.480;2022-11-30T17:41:31;8.75;;;5.00;;
58214;SDS011;44011;52.218;1.480;2022-11-30T17:43:57;7.47;;;4.20;;
58214;SDS011;44011;52.218;1.480;2022-11-30T17:46:22;7.97;;;3.88;;
58214;SDS011;44011;52.218;1.480;2022-11-30T17:48:48;6.63;;;3.97;;
58214;SDS011;44011;52.218;1.480;2022-11-30T17:51:14;7.30;;;3.42;;
58214;SDS011;44011;52.218;1.480;2022-11-30T17:53:39;5.82;;;3.65;;
58214;SDS011;44011;52.218;1.480;2022-11-30T17:56:06;4.93;;;3.75;;
58214;SDS011;44011;52.218;1.480;2022-11-30T17:58:32;5.28;;;3.22;;
58214;SDS011;44011;52.218;1.480;2022-11-30T18:00:57;6.75;;;4.07;;
58214;SDS011;44011;52.218;1.480;2022-11-30T18:03:23;5.63;;;3.50;;
58214;SDS011;44011;52.218;1.480;2022-11-30T18:05:48;7.13;;;4.07;;
58214;SDS011;44011;52.218;1.480;2022-11-30T18:08:14;7.03;;;4.45;;
58214;SDS011;44011;52.218;1.480;2022-11-30T18:10:39;4.65;;;3.20;;
58214;SDS011;44011;52.218;1.480;2022-11-30T18:13:05;7.35;;;4.43;;
58214;SDS011;44011;52.218;1.480;2022-11-30T18:15:30;7.45;;;5.35;;
58214;SDS011;44011;52.218;1.480;2022-11-30T18:17:56;7.55;;;4.38;;
58214;SDS011;44011;52.218;1.480;2022-11-30T18:20:25;8.05;;;4.68;;
58214;SDS011;44011;52.218;1.480;2022-11-30T18:22:50;11.73;;;4.75;;
58214;SDS011;44011;52.218;1.480;2022-11-30T18:25:16;7.40;;;3.95;;
58214;SDS011;44011;52.218;1.480;2022-11-30T18:27:41;6.53;;;4.85;;
58214;SDS011;44011;52.218;1.480;2022-11-30T18:30:07;6.10;;;4.00;;
58214;SDS011;44011;52.218;1.480;2022-11-30T18:32:32;8.75;;;4.07;;
58214;SDS011;44011;52.218;1.480;2022-11-30T18:34:57;7.47;;;3.90;;
58214;SDS011;44011;52.218;1.480;2022-11-30T18:37:23;6.18;;;4.25;;
58214;SDS011;44011;52.218;1.480;2022-11-30T18:39:48;6.70;;;3.80;;
58214;SDS011;44011;52.218;1.480;2022-11-30T18:42:14;6.80;;;3.92;;
58214;SDS011;44011;52.218;1.480;2022-11-30T18:44:39;7.90;;;3.92;;
58214;SDS011;44011;52.218;1.480;2022-11-30T18:47:05;10.55;;;3.88;;
58214;SDS011;44011;52.218;1.480;2022-11-30T18:49:30;6.90;;;4.07;;
58214;SDS011;44011;52.218;1.480;2022-11-30T18:51:55;5.88;;;3.85;;